createdAt,value
2022-08-17T00:02:26.501Z,5.30
2022-08-17T00:04:55.497Z,4.93
2022-08-17T00:07:23.203Z,4.68
2022-08-17T00:09:50.236Z,4.47
2022-08-17T00:12:44.420Z,4.47
2022-08-17T00:15:05.778Z,4.95
2022-08-17T00:17:35.517Z,4.63
2022-08-17T00:20:03.815Z,4.95
2022-08-17T00:22:34.465Z,5.03
2022-08-17T00:25:07.373Z,4.47
2022-08-17T00:27:35.363Z,4.93
2022-08-17T00:30:03.338Z,4.90
2022-08-17T00:33:23.255Z,4.75
2022-08-17T00:35:27.841Z,5.20
2022-08-17T00:37:54.666Z,5.40
2022-08-17T00:40:21.978Z,5.18
2022-08-17T00:42:53.256Z,5.03
2022-08-17T00:45:20.533Z,5.30
2022-08-17T00:47:48.462Z,4.80
2022-08-17T00:50:19.285Z,5.28
2022-08-17T00:52:54.950Z,4.90
2022-08-17T00:55:23.848Z,5.43
2022-08-17T00:57:55.622Z,5.15
2022-08-17T01:00:29.533Z,5.20
2022-08-17T01:03:01.993Z,5.22
2022-08-17T01:05:31.691Z,5.35
2022-08-17T01:08:00.963Z,5.38
2022-08-17T01:10:59.689Z,5.70
2022-08-17T01:13:24.078Z,5.75
2022-08-17T01:16:04.515Z,5.53
2022-08-17T01:18:31.621Z,5.90
2022-08-17T01:21:04.558Z,5.50
2022-08-17T01:23:31.688Z,5.65
2022-08-17T01:26:01.817Z,5.65
2022-08-17T01:28:54.572Z,5.63
2022-08-17T01:31:21.750Z,5.35
2022-08-17T01:33:48.580Z,5.38
2022-08-17T01:36:15.445Z,5.38
2022-08-17T01:38:42.217Z,5.47
2022-08-17T01:41:13.373Z,5.18
2022-08-17T01:43:46.700Z,5.03
2022-08-17T01:46:22.336Z,5.35
2022-08-17T01:48:51.128Z,5.03
2022-08-17T01:51:19.042Z,5.47
2022-08-17T01:53:52.643Z,5.88
2022-08-17T01:58:48.741Z,5.47
2022-08-17T02:01:21.560Z,6.30
2022-08-17T02:03:53.158Z,6.35
2022-08-17T02:06:27.115Z,6.85
2022-08-17T02:09:02.448Z,6.57
2022-08-17T02:11:33.464Z,6.10
2022-08-17T02:14:03.522Z,6.57
2022-08-17T02:16:37.592Z,6.15
2022-08-17T02:19:12.477Z,5.33
2022-08-17T02:21:40.856Z,5.32
2022-08-17T02:24:12.013Z,5.05
2022-08-17T02:26:38.926Z,5.25
2022-08-17T02:29:05.694Z,5.53
2022-08-17T02:31:32.934Z,5.30
2022-08-17T02:34:04.454Z,5.18
2022-08-17T02:36:35.497Z,5.55
2022-08-17T02:39:07.145Z,5.50
2022-08-17T02:41:34.079Z,5.72
2022-08-17T02:44:01.124Z,6.45
2022-08-17T02:46:28.578Z,5.95
2022-08-17T02:48:55.511Z,5.80
2022-08-17T02:51:22.512Z,6.05
2022-08-17T02:53:49.372Z,7.03
2022-08-17T02:56:16.403Z,6.03
2022-08-17T02:58:43.184Z,6.20
2022-08-17T03:01:10.610Z,6.15
2022-08-17T03:03:39.054Z,6.13
2022-08-17T03:06:07.763Z,6.18
2022-08-17T03:08:35.290Z,6.63
2022-08-17T03:11:02.146Z,6.43
2022-08-17T03:13:30.704Z,6.13
2022-08-17T03:15:57.544Z,6.25
2022-08-17T03:18:26.392Z,5.93
2022-08-17T03:20:56.161Z,6.10
2022-08-17T03:23:25.371Z,5.97
2022-08-17T03:25:53.795Z,6.30
2022-08-17T03:28:21.976Z,5.90
2022-08-17T03:30:51.011Z,6.18
2022-08-17T03:33:17.979Z,5.45
2022-08-17T03:35:44.887Z,6.45
2022-08-17T03:38:15.065Z,6.10
2022-08-17T03:40:56.970Z,5.70
2022-08-17T03:46:28.423Z,6.43
2022-08-17T03:49:17.800Z,6.03
2022-08-17T03:52:03.094Z,5.85
2022-08-17T03:54:48.420Z,6.60
2022-08-17T03:57:15.206Z,6.05
2022-08-17T03:59:42.022Z,6.35
2022-08-17T04:02:17.378Z,5.97
2022-08-17T04:04:44.460Z,6.70
2022-08-17T04:07:12.757Z,6.43
2022-08-17T04:09:39.567Z,6.85
2022-08-17T04:12:06.452Z,6.35
2022-08-17T04:14:51.430Z,5.95
2022-08-17T04:17:23.230Z,6.35
2022-08-17T04:19:50.081Z,6.95
2022-08-17T04:22:30.387Z,5.72
2022-08-17T04:25:13.798Z,6.00
2022-08-17T04:27:41.100Z,6.18
2022-08-17T04:30:08.634Z,6.15
2022-08-17T04:33:19.133Z,6.20
2022-08-17T04:35:42.658Z,6.15
2022-08-17T04:38:12.806Z,6.55
2022-08-17T04:40:58.099Z,6.43
2022-08-17T04:43:27.208Z,6.78
2022-08-17T04:46:01.920Z,6.70
2022-08-17T04:48:36.420Z,5.80
2022-08-17T04:51:07.742Z,6.00
2022-08-17T04:53:34.587Z,7.18
2022-08-17T04:56:01.378Z,6.13
2022-08-17T04:58:28.284Z,6.28
2022-08-17T05:00:55.134Z,6.22
2022-08-17T05:03:21.910Z,6.57
2022-08-17T05:05:51.971Z,7.30
2022-08-17T05:08:20.176Z,7.20
2022-08-17T05:10:48.259Z,6.30
2022-08-17T05:13:21.940Z,6.72
2022-08-17T05:15:52.775Z,6.45
2022-08-17T05:18:19.522Z,6.55
2022-08-17T05:20:46.694Z,6.90
2022-08-17T05:23:17.033Z,7.05
2022-08-17T05:25:47.665Z,6.97
2022-08-17T05:28:16.171Z,6.95
2022-08-17T05:30:44.973Z,6.95
2022-08-17T05:33:27.974Z,7.25
2022-08-17T05:35:56.493Z,7.63
2022-08-17T05:38:26.450Z,7.70
2022-08-17T05:40:54.367Z,8.48
2022-08-17T05:43:24.338Z,9.27
2022-08-17T05:46:27.003Z,9.30
2022-08-17T05:48:58.299Z,8.75
2022-08-17T05:51:33.677Z,7.93
2022-08-17T05:54:24.848Z,8.70
2022-08-17T05:57:12.504Z,8.68
2022-08-17T05:59:58.356Z,9.25
2022-08-17T06:02:50.993Z,9.75
2022-08-17T06:05:27.208Z,8.88
2022-08-17T06:07:59.911Z,9.73
2022-08-17T06:10:54.535Z,9.93
2022-08-17T06:13:45.759Z,9.30
2022-08-17T06:16:33.097Z,10.18
2022-08-17T06:19:13.051Z,8.15
2022-08-17T06:21:43.380Z,8.52
2022-08-17T06:24:34.257Z,9.10
2022-08-17T06:27:41.729Z,8.60
2022-08-17T06:30:14.009Z,9.23
2022-08-17T06:32:44.765Z,8.60
2022-08-17T06:35:18.895Z,9.10
2022-08-17T06:38:36.872Z,8.68
2022-08-17T06:41:24.591Z,7.25
2022-08-17T06:44:09.938Z,7.28
2022-08-17T06:46:50.995Z,7.40
2022-08-17T06:49:55.433Z,7.43
2022-08-17T06:52:45.859Z,6.53
2022-08-17T06:55:26.246Z,7.38
2022-08-17T06:57:58.751Z,7.10
2022-08-17T07:00:36.099Z,7.20
2022-08-17T07:03:27.881Z,7.18
2022-08-17T07:06:00.880Z,5.50
2022-08-17T07:08:50.995Z,6.22
2022-08-17T07:11:26.143Z,6.25
2022-08-17T07:14:24.008Z,6.07
2022-08-17T07:16:53.462Z,6.63
2022-08-17T07:19:24.692Z,5.85
2022-08-17T07:21:51.646Z,6.18
2022-08-17T07:24:50.975Z,6.15
2022-08-17T07:27:22.136Z,5.22
2022-08-17T07:30:10.370Z,5.82
2022-08-17T07:32:50.768Z,5.13
2022-08-17T07:35:43.863Z,5.35
2022-08-17T07:38:25.107Z,4.68
2022-08-17T07:41:02.760Z,4.88
2022-08-17T07:43:47.080Z,4.70
2022-08-17T07:46:41.321Z,4.70
2022-08-17T07:49:12.526Z,4.72
2022-08-17T07:51:45.485Z,4.80
2022-08-17T07:54:15.209Z,4.57
2022-08-17T07:56:52.849Z,4.80
2022-08-17T07:59:33.468Z,5.03
2022-08-17T08:02:26.451Z,5.20
2022-08-17T08:05:08.981Z,4.95
2022-08-17T08:07:58.063Z,4.78
2022-08-17T08:10:30.723Z,4.78
2022-08-17T08:13:23.856Z,4.13
2022-08-17T08:15:54.710Z,4.25
2022-08-17T08:18:53.270Z,4.57
2022-08-17T08:21:51.212Z,4.50
2022-08-17T08:24:55.468Z,4.50
2022-08-17T08:27:42.952Z,3.88
2022-08-17T08:30:14.761Z,3.97
2022-08-17T08:33:20.174Z,4.03
2022-08-17T08:35:53.566Z,3.80
2022-08-17T08:41:05.380Z,3.90
2022-08-17T08:43:52.199Z,3.70
2022-08-17T08:46:50.312Z,3.60
2022-08-17T08:50:04.475Z,3.70
2022-08-17T08:53:10.976Z,3.22
2022-08-17T08:56:00.327Z,3.28
2022-08-17T08:58:47.169Z,3.08
2022-08-17T09:01:26.510Z,3.40
2022-08-17T09:04:23.200Z,3.10
2022-08-17T09:07:12.263Z,3.38
2022-08-17T09:10:03.283Z,2.97
2022-08-17T09:12:45.492Z,3.30
2022-08-17T09:15:27.552Z,3.10
2022-08-17T09:21:10.159Z,3.10
2022-08-17T09:24:12.694Z,2.43
2022-08-17T09:27:00.404Z,2.70
2022-08-17T09:29:34.364Z,2.83
2022-08-17T09:32:17.613Z,2.67
2022-08-17T09:34:52.594Z,2.50
2022-08-17T09:37:43.053Z,2.65
2022-08-17T09:40:20.951Z,2.80
2022-08-17T09:43:01.358Z,2.72
2022-08-17T09:45:43.262Z,2.65
2022-08-17T09:48:18.164Z,2.25
2022-08-17T09:51:15.512Z,2.58
2022-08-17T09:53:44.716Z,2.40
2022-08-17T09:56:46.027Z,2.33
2022-08-17T09:59:27.423Z,2.67
2022-08-17T10:02:30.957Z,2.53
2022-08-17T10:05:13.269Z,2.40
2022-08-17T10:08:22.877Z,2.55
2022-08-17T10:11:08.287Z,2.28
2022-08-17T10:13:59.470Z,2.25
2022-08-17T10:16:52.143Z,2.38
2022-08-17T10:19:26.710Z,2.50
2022-08-17T10:22:34.525Z,2.20
2022-08-17T10:25:26.117Z,2.45
2022-08-17T10:28:06.052Z,2.45
2022-08-17T10:30:43.665Z,2.08
2022-08-17T10:33:27.971Z,2.40
2022-08-17T10:36:11.113Z,2.08
2022-08-17T10:38:49.446Z,2.10
2022-08-17T10:41:25.703Z,2.25
2022-08-17T10:44:38.799Z,2.10
2022-08-17T10:47:04.114Z,2.17
2022-08-17T10:49:36.354Z,2.28
2022-08-17T10:52:24.831Z,2.25
2022-08-17T10:54:51.867Z,2.03
2022-08-17T10:57:34.316Z,2.13
2022-08-17T11:00:10.332Z,2.30
2022-08-17T11:02:49.986Z,2.10
2022-08-17T11:05:43.830Z,2.30
2022-08-17T11:08:25.891Z,2.22
2022-08-17T11:11:08.668Z,1.98
2022-08-17T11:14:09.798Z,2.30
2022-08-17T11:16:57.667Z,2.35
2022-08-17T11:20:17.380Z,2.50
2022-08-17T11:23:15.122Z,2.13
2022-08-17T11:25:55.353Z,2.50
2022-08-17T11:28:24.833Z,2.00
2022-08-17T11:31:01.634Z,2.25
2022-08-17T11:33:36.751Z,2.25
2022-08-17T11:36:21.775Z,1.98
2022-08-17T11:38:58.013Z,2.00
2022-08-17T11:41:36.169Z,1.92
2022-08-17T11:44:05.824Z,2.50
2022-08-17T11:47:00.085Z,2.20
2022-08-17T11:50:06.865Z,2.10
2022-08-17T11:52:41.284Z,2.28
2022-08-17T11:55:35.682Z,2.10
2022-08-17T11:58:29.184Z,2.60
2022-08-17T12:00:58.575Z,1.88
2022-08-17T12:03:31.850Z,2.00
2022-08-17T12:06:17.790Z,2.40
2022-08-17T12:08:51.580Z,2.30
2022-08-17T12:11:56.305Z,2.00
2022-08-17T12:17:26.483Z,2.10
2022-08-17T12:20:18.107Z,2.25
2022-08-17T12:23:09.156Z,2.10
2022-08-17T12:25:51.369Z,1.98
2022-08-17T12:28:26.589Z,2.20
2022-08-17T12:30:54.654Z,2.22
2022-08-17T12:33:25.332Z,2.40
2022-08-17T12:36:08.520Z,2.17
2022-08-17T12:38:37.920Z,2.00
2022-08-17T12:41:25.693Z,2.35
2022-08-17T12:44:04.435Z,2.15
2022-08-17T12:46:44.708Z,2.00
2022-08-17T12:49:24.643Z,2.28
2022-08-17T12:51:56.475Z,2.13
2022-08-17T12:54:38.021Z,1.90
2022-08-17T12:57:13.487Z,2.15
2022-08-17T12:59:49.965Z,2.08
2022-08-17T13:02:28.258Z,2.28
2022-08-17T13:04:58.609Z,1.95
2022-08-17T13:07:32.220Z,2.17
2022-08-17T13:09:59.148Z,1.98
2022-08-17T13:12:30.242Z,1.98
2022-08-17T13:14:57.690Z,2.38
2022-08-17T13:17:31.429Z,2.10
2022-08-17T13:19:59.062Z,2.10
2022-08-17T13:22:28.000Z,2.33
2022-08-17T13:25:00.702Z,2.05
2022-08-17T13:27:29.844Z,2.38
2022-08-17T13:30:01.101Z,2.20
2022-08-17T13:32:36.285Z,2.10
2022-08-17T13:35:32.854Z,2.28
2022-08-17T13:38:09.688Z,1.90
2022-08-17T13:40:43.546Z,2.03
2022-08-17T13:43:11.649Z,2.22
2022-08-17T13:45:45.520Z,2.00
2022-08-17T13:48:17.307Z,2.25
2022-08-17T13:50:56.452Z,2.25
2022-08-17T13:53:40.225Z,2.13
2022-08-17T13:56:38.359Z,2.00
2022-08-17T13:59:53.361Z,2.20
2022-08-17T14:02:13.159Z,2.50
2022-08-17T14:04:42.014Z,2.35
2022-08-17T14:07:08.733Z,2.22
2022-08-17T14:09:42.498Z,2.03
2022-08-17T14:12:11.305Z,2.25
2022-08-17T14:14:39.164Z,2.50
2022-08-17T14:17:06.031Z,1.92
2022-08-17T14:19:35.193Z,2.13
2022-08-17T14:22:02.773Z,2.47
2022-08-17T14:24:32.783Z,1.98
2022-08-17T14:27:03.497Z,2.20
2022-08-17T14:29:31.671Z,2.10
2022-08-17T14:32:10.776Z,2.30
2022-08-17T14:34:37.566Z,2.20
2022-08-17T14:37:04.534Z,2.45
2022-08-17T14:39:32.688Z,2.28
2022-08-17T14:42:01.032Z,2.30
2022-08-17T14:44:27.861Z,2.13
2022-08-17T14:46:54.700Z,2.30
2022-08-17T14:49:21.498Z,2.13
2022-08-17T14:51:48.370Z,2.10
2022-08-17T14:54:33.566Z,2.53
2022-08-17T14:57:25.859Z,2.00
2022-08-17T14:59:54.542Z,2.17
2022-08-17T15:02:29.348Z,2.28
2022-08-17T15:05:02.679Z,2.75
2022-08-17T15:07:30.563Z,2.08
2022-08-17T15:10:02.000Z,2.40
2022-08-17T15:12:34.580Z,2.20
2022-08-17T15:15:05.201Z,2.00
2022-08-17T15:17:43.679Z,2.30
2022-08-17T15:20:16.383Z,2.20
2022-08-17T15:22:44.188Z,2.00
2022-08-17T15:25:12.563Z,2.50
2022-08-17T15:27:40.263Z,2.53
2022-08-17T15:30:08.687Z,2.40
2022-08-17T15:32:38.096Z,2.33
2022-08-17T15:35:06.720Z,2.42
2022-08-17T15:37:33.729Z,2.30
2022-08-17T15:40:01.171Z,2.15
2022-08-17T15:42:29.288Z,2.30
2022-08-17T15:44:56.341Z,2.13
2022-08-17T15:47:24.363Z,2.40
2022-08-17T15:49:51.140Z,2.30
2022-08-17T15:52:26.786Z,2.30
2022-08-17T15:54:59.472Z,2.38
2022-08-17T15:57:27.867Z,2.10
2022-08-17T15:59:58.681Z,2.30
2022-08-17T16:03:45.712Z,2.45
2022-08-17T16:05:24.866Z,2.33
2022-08-17T16:07:52.604Z,2.30
2022-08-17T16:10:19.827Z,2.05
2022-08-17T16:12:48.362Z,2.25
2022-08-17T16:15:16.195Z,2.20
2022-08-17T16:17:43.360Z,2.53
2022-08-17T16:20:19.939Z,2.35
2022-08-17T16:22:48.970Z,1.98
2022-08-17T16:25:52.515Z,2.38
2022-08-17T16:28:11.758Z,2.10
2022-08-17T16:30:38.828Z,2.20
2022-08-17T16:33:05.681Z,2.55
2022-08-17T16:35:32.674Z,2.70
2022-08-17T16:37:59.444Z,2.70
2022-08-17T16:40:28.632Z,2.60
2022-08-17T16:42:56.100Z,2.67
2022-08-17T16:45:31.369Z,2.53
2022-08-17T16:48:01.559Z,2.47
2022-08-17T16:50:28.463Z,2.55
2022-08-17T16:53:07.523Z,2.85
2022-08-17T16:55:37.611Z,3.50
2022-08-17T16:58:06.572Z,2.65
2022-08-17T17:00:34.449Z,2.67
2022-08-17T17:03:19.918Z,2.78
2022-08-17T17:06:24.474Z,3.00
2022-08-17T17:09:10.648Z,3.03
2022-08-17T17:11:43.240Z,2.63
2022-08-17T17:14:24.505Z,2.70
2022-08-17T17:17:08.061Z,3.00
2022-08-17T17:20:02.856Z,3.10
2022-08-17T17:22:41.905Z,2.33
2022-08-17T17:25:24.003Z,2.55
2022-08-17T17:28:15.933Z,2.40
2022-08-17T17:31:02.062Z,2.40
2022-08-17T17:33:40.396Z,2.70
2022-08-17T17:36:25.987Z,2.53
2022-08-17T17:38:59.160Z,2.70
2022-08-17T17:41:51.158Z,2.70
2022-08-17T17:44:22.717Z,2.80
2022-08-17T17:46:55.144Z,2.50
2022-08-17T17:49:23.262Z,3.22
2022-08-17T17:52:10.030Z,3.10
2022-08-17T17:54:42.085Z,2.90
2022-08-17T17:57:36.044Z,3.20
2022-08-17T18:00:25.060Z,2.80
2022-08-17T18:03:21.899Z,2.85
2022-08-17T18:05:48.895Z,2.90
2022-08-17T18:08:34.748Z,3.10
2022-08-17T18:11:07.744Z,2.70
2022-08-17T18:13:56.279Z,2.72
2022-08-17T18:16:23.466Z,3.78
2022-08-17T18:18:52.267Z,3.10
2022-08-17T18:21:35.575Z,3.13
2022-08-17T18:24:05.319Z,3.03
2022-08-17T18:26:45.141Z,2.90
2022-08-17T18:29:24.138Z,3.08
2022-08-17T18:32:14.925Z,3.17
2022-08-17T18:34:47.716Z,3.38
2022-08-17T18:37:35.080Z,3.42
2022-08-17T18:40:17.263Z,3.15
2022-08-17T18:42:46.723Z,2.95
2022-08-17T18:45:30.135Z,3.42
2022-08-17T18:47:57.008Z,2.97
2022-08-17T18:50:33.922Z,3.10
2022-08-17T18:53:26.489Z,3.25
2022-08-17T18:56:27.450Z,3.30
2022-08-17T18:59:12.228Z,3.42
2022-08-17T19:01:58.181Z,3.05
2022-08-17T19:04:34.522Z,3.35
2022-08-17T19:07:25.014Z,3.72
2022-08-17T19:09:54.567Z,3.97
2022-08-17T19:12:43.568Z,3.88
2022-08-17T19:15:13.283Z,3.78
2022-08-17T19:17:51.086Z,4.00
2022-08-17T19:20:35.693Z,3.55
2022-08-17T19:23:33.342Z,3.55
2022-08-17T19:26:01.663Z,3.45
2022-08-17T19:28:54.498Z,3.63
2022-08-17T19:33:55.092Z,3.58
2022-08-17T19:36:21.884Z,3.38
2022-08-17T19:39:20.150Z,3.30
2022-08-17T19:42:16.761Z,4.20
2022-08-17T19:44:54.787Z,3.80
2022-08-17T19:47:55.111Z,4.00
2022-08-17T19:50:49.568Z,3.90
2022-08-17T19:53:54.067Z,4.05
2022-08-17T19:56:47.101Z,3.85
2022-08-17T19:59:35.912Z,3.80
2022-08-17T20:02:25.770Z,4.18
2022-08-17T20:04:54.781Z,4.30
2022-08-17T20:07:33.624Z,3.83
2022-08-17T20:10:12.843Z,4.32
2022-08-17T20:12:43.956Z,4.00
2022-08-17T20:15:16.903Z,3.63
2022-08-17T20:17:46.685Z,3.38
2022-08-17T20:20:41.467Z,3.95
2022-08-17T20:23:33.209Z,3.92
2022-08-17T20:26:19.163Z,4.18
2022-08-17T20:29:07.032Z,4.10
2022-08-17T20:31:50.807Z,4.13
2022-08-17T20:37:32.416Z,4.20
2022-08-17T20:39:59.190Z,3.92
2022-08-17T20:42:28.682Z,3.53
2022-08-17T20:45:19.967Z,3.78
2022-08-17T20:51:09.538Z,4.10
2022-08-17T20:53:58.330Z,4.00
2022-08-17T20:56:43.338Z,3.80
2022-08-17T20:59:24.037Z,4.18
2022-08-17T21:02:08.925Z,4.25
2022-08-17T21:04:52.250Z,4.35
2022-08-17T21:07:43.677Z,4.32
2022-08-17T21:10:13.940Z,4.28
2022-08-17T21:12:55.097Z,4.30
2022-08-17T21:15:30.996Z,4.20
2022-08-17T21:18:25.892Z,4.18
2022-08-17T21:21:17.787Z,3.90
2022-08-17T21:23:59.632Z,4.53
2022-08-17T21:26:50.307Z,5.05
2022-08-17T21:29:31.858Z,4.60
2022-08-17T21:32:02.835Z,4.80
2022-08-17T21:34:38.853Z,3.90
2022-08-17T21:37:23.664Z,3.85
2022-08-17T21:39:58.255Z,3.97
2022-08-17T21:42:32.035Z,4.53
2022-08-17T21:45:18.832Z,4.10
2022-08-17T21:48:05.229Z,5.20
2022-08-17T21:50:32.407Z,4.45
2022-08-17T21:53:02.273Z,4.05
2022-08-17T21:55:32.442Z,4.22
2022-08-17T21:58:14.655Z,4.10
2022-08-17T22:00:43.272Z,4.13
2022-08-17T22:03:23.786Z,4.30
2022-08-17T22:05:51.341Z,4.15
2022-08-17T22:08:25.905Z,4.25
2022-08-17T22:11:01.903Z,4.28
2022-08-17T22:13:29.614Z,4.70
2022-08-17T22:16:15.461Z,4.60
2022-08-17T22:18:53.742Z,4.88
2022-08-17T22:21:22.610Z,4.88
2022-08-17T22:24:21.381Z,4.43
2022-08-17T22:27:11.408Z,4.45
2022-08-17T22:29:53.206Z,4.85
2022-08-17T22:32:37.893Z,4.85
2022-08-17T22:35:29.300Z,4.57
2022-08-17T22:37:57.601Z,4.25
2022-08-17T22:40:42.504Z,5.30
2022-08-17T22:43:12.875Z,4.68
2022-08-17T22:45:48.256Z,4.65
2022-08-17T22:48:22.193Z,4.95
2022-08-17T22:51:13.402Z,5.03
2022-08-17T22:54:19.057Z,5.20
2022-08-17T22:57:20.984Z,4.85
2022-08-17T22:59:51.431Z,5.55
2022-08-17T23:02:30.652Z,5.15
2022-08-17T23:05:18.853Z,4.68
2022-08-17T23:07:47.282Z,4.30
2022-08-17T23:10:14.253Z,4.53
2022-08-17T23:12:41.143Z,5.35
2022-08-17T23:15:15.384Z,4.38
2022-08-17T23:17:42.619Z,4.82
2022-08-17T23:20:15.008Z,4.55
2022-08-17T23:22:51.710Z,4.70
2022-08-17T23:25:29.491Z,4.50
2022-08-17T23:27:57.596Z,5.10
2022-08-17T23:30:25.687Z,5.05
2022-08-17T23:32:56.488Z,5.00
2022-08-17T23:35:40.296Z,5.20
2022-08-17T23:38:12.830Z,5.20
2022-08-17T23:40:40.520Z,5.10
2022-08-17T23:43:23.732Z,4.57
2022-08-17T23:45:58.487Z,5.22
2022-08-17T23:48:36.224Z,4.60
2022-08-17T23:51:06.014Z,5.18
2022-08-17T23:53:36.687Z,6.80
2022-08-17T23:56:10.209Z,4.85
2022-08-17T23:58:40.170Z,5.07
